sensor_id;sensor_type;location;lat;lon;timestamp;temperature;humidity
18083;DHT22;9168;51.194;6.840;2023-12-07T00:01:58;1.10;99.90
18083;DHT22;9168;51.194;6.840;2023-12-07T00:04:25;1.00;99.90
18083;DHT22;9168;51.194;6.840;2023-12-07T00:06:52;1.10;99.90
18083;DHT22;9168;51.194;6.840;2023-12-07T00:09:20;1.10;99.90
18083;DHT22;9168;51.194;6.840;2023-12-07T00:11:47;1.00;99.90
18083;DHT22;9168;51.194;6.840;2023-12-07T00:14:14;1.00;99.90
18083;DHT22;9168;51.194;6.840;2023-12-07T00:16:41;1.00;99.90
18083;DHT22;9168;51.194;6.840;2023-12-07T00:19:08;1.00;99.90
18083;DHT22;9168;51.194;6.840;2023-12-07T00:21:35;1.00;99.90
18083;DHT22;9168;51.194;6.840;2023-12-07T00:24:02;1.00;99.90
18083;DHT22;9168;51.194;6.840;2023-12-07T00:26:30;1.00;99.90
18083;DHT22;9168;51.194;6.840;2023-12-07T00:28:57;1.00;99.90
18083;DHT22;9168;51.194;6.840;2023-12-07T00:31:24;1.00;99.90
18083;DHT22;9168;51.194;6.840;2023-12-07T00:33:51;1.00;99.90
18083;DHT22;9168;51.194;6.840;2023-12-07T00:36:18;1.00;99.90
18083;DHT22;9168;51.194;6.840;2023-12-07T00:38:45;1.00;99.90
18083;DHT22;9168;51.194;6.840;2023-12-07T00:41:12;1.00;99.90
18083;DHT22;9168;51.194;6.840;2023-12-07T00:43:40;1.00;99.90
18083;DHT22;9168;51.194;6.840;2023-12-07T00:46:07;0.90;99.90
18083;DHT22;9168;51.194;6.840;2023-12-07T00:48:34;0.90;99.90
18083;DHT22;9168;51.194;6.840;2023-12-07T00:51:01;0.90;99.90
18083;DHT22;9168;51.194;6.840;2023-12-07T00:53:28;1.00;99.90
18083;DHT22;9168;51.194;6.840;2023-12-07T00:55:55;1.00;99.90
18083;DHT22;9168;51.194;6.840;2023-12-07T00:58:21;0.90;99.90
18083;DHT22;9168;51.194;6.840;2023-12-07T01:00:50;1.00;99.90
18083;DHT22;9168;51.194;6.840;2023-12-07T01:03:17;1.00;99.90
18083;DHT22;9168;51.194;6.840;2023-12-07T01:05:44;1.00;99.90
18083;DHT22;9168;51.194;6.840;2023-12-07T01:08:11;1.00;99.90
18083;DHT22;9168;51.194;6.840;2023-12-07T01:10:38;1.10;99.90
18083;DHT22;9168;51.194;6.840;2023-12-07T01:13:05;1.10;99.90
18083;DHT22;9168;51.194;6.840;2023-12-07T01:15:32;1.10;99.90
18083;DHT22;9168;51.194;6.840;2023-12-07T01:18:00;1.10;99.90
18083;DHT22;9168;51.194;6.840;2023-12-07T01:20:27;1.10;99.90
18083;DHT22;9168;51.194;6.840;2023-12-07T01:22:54;1.10;99.90
18083;DHT22;9168;51.194;6.840;2023-12-07T01:25:21;1.10;99.90
18083;DHT22;9168;51.194;6.840;2023-12-07T01:27:48;1.10;99.90
18083;DHT22;9168;51.194;6.840;2023-12-07T01:30:15;1.10;99.90
18083;DHT22;9168;51.194;6.840;2023-12-07T01:32:42;1.00;99.90
18083;DHT22;9168;51.194;6.840;2023-12-07T01:35:10;1.00;99.90
18083;DHT22;9168;51.194;6.840;2023-12-07T01:37:38;1.00;99.90
18083;DHT22;9168;51.194;6.840;2023-12-07T01:40:06;1.00;99.90
18083;DHT22;9168;51.194;6.840;2023-12-07T01:42:36;1.00;99.90
18083;DHT22;9168;51.194;6.840;2023-12-07T01:45:04;1.00;99.90
18083;DHT22;9168;51.194;6.840;2023-12-07T01:47:31;1.00;99.90
18083;DHT22;9168;51.194;6.840;2023-12-07T01:49:59;1.00;99.90
18083;DHT22;9168;51.194;6.840;2023-12-07T01:52:28;0.90;99.90
18083;DHT22;9168;51.194;6.840;2023-12-07T01:54:56;0.90;99.90
18083;DHT22;9168;51.194;6.840;2023-12-07T01:57:24;1.00;99.90
18083;DHT22;9168;51.194;6.840;2023-12-07T01:59:51;1.00;99.90
18083;DHT22;9168;51.194;6.840;2023-12-07T02:02:18;1.10;99.90
18083;DHT22;9168;51.194;6.840;2023-12-07T02:04:45;1.10;99.90
18083;DHT22;9168;51.194;6.840;2023-12-07T02:07:12;1.20;99.90
18083;DHT22;9168;51.194;6.840;2023-12-07T02:09:40;1.20;99.90
18083;DHT22;9168;51.194;6.840;2023-12-07T02:12:07;1.30;99.90
18083;DHT22;9168;51.194;6.840;2023-12-07T02:14:35;1.30;99.90
18083;DHT22;9168;51.194;6.840;2023-12-07T02:17:08;1.40;99.90
18083;DHT22;9168;51.194;6.840;2023-12-07T02:19:52;1.50;99.90
18083;DHT22;9168;51.194;6.840;2023-12-07T02:22:25;1.50;99.90
18083;DHT22;9168;51.194;6.840;2023-12-07T02:25:05;1.60;99.90
18083;DHT22;9168;51.194;6.840;2023-12-07T02:27:35;1.60;99.90
18083;DHT22;9168;51.194;6.840;2023-12-07T02:30:03;1.70;99.90
18083;DHT22;9168;51.194;6.840;2023-12-07T02:32:30;1.70;99.90
18083;DHT22;9168;51.194;6.840;2023-12-07T02:34:57;1.70;99.90
18083;DHT22;9168;51.194;6.840;2023-12-07T02:37:28;1.80;99.90
18083;DHT22;9168;51.194;6.840;2023-12-07T02:39:56;1.80;99.90
18083;DHT22;9168;51.194;6.840;2023-12-07T02:42:24;1.90;99.90
18083;DHT22;9168;51.194;6.840;2023-12-07T02:44:53;1.90;99.90
18083;DHT22;9168;51.194;6.840;2023-12-07T02:47:20;2.00;99.90
18083;DHT22;9168;51.194;6.840;2023-12-07T02:49:47;2.00;99.90
18083;DHT22;9168;51.194;6.840;2023-12-07T02:52:14;2.00;99.90
18083;DHT22;9168;51.194;6.840;2023-12-07T02:54:41;2.10;99.90
18083;DHT22;9168;51.194;6.840;2023-12-07T02:57:08;2.10;99.90
18083;DHT22;9168;51.194;6.840;2023-12-07T02:59:35;2.10;99.90
18083;DHT22;9168;51.194;6.840;2023-12-07T03:02:03;2.10;99.90
18083;DHT22;9168;51.194;6.840;2023-12-07T03:04:30;2.20;99.90
18083;DHT22;9168;51.194;6.840;2023-12-07T03:06:57;2.20;99.90
18083;DHT22;9168;51.194;6.840;2023-12-07T03:09:24;2.20;99.90
18083;DHT22;9168;51.194;6.840;2023-12-07T03:11:51;2.30;99.90
18083;DHT22;9168;51.194;6.840;2023-12-07T03:14:18;2.30;99.90
18083;DHT22;9168;51.194;6.840;2023-12-07T03:16:45;2.40;99.90
18083;DHT22;9168;51.194;6.840;2023-12-07T03:19:14;2.40;99.90
18083;DHT22;9168;51.194;6.840;2023-12-07T03:21:41;2.40;99.90
18083;DHT22;9168;51.194;6.840;2023-12-07T03:24:08;2.50;99.90
18083;DHT22;9168;51.194;6.840;2023-12-07T03:26:36;2.60;99.90
18083;DHT22;9168;51.194;6.840;2023-12-07T03:29:03;2.60;99.90
18083;DHT22;9168;51.194;6.840;2023-12-07T03:31:30;2.60;99.90
18083;DHT22;9168;51.194;6.840;2023-12-07T03:33:57;2.70;99.90
18083;DHT22;9168;51.194;6.840;2023-12-07T03:36:26;2.80;99.90
18083;DHT22;9168;51.194;6.840;2023-12-07T03:38:53;2.80;99.90
18083;DHT22;9168;51.194;6.840;2023-12-07T03:41:20;2.80;99.90
18083;DHT22;9168;51.194;6.840;2023-12-07T03:43:46;2.80;99.90
18083;DHT22;9168;51.194;6.840;2023-12-07T03:46:13;2.90;99.90
18083;DHT22;9168;51.194;6.840;2023-12-07T03:48:40;2.90;99.90
18083;DHT22;9168;51.194;6.840;2023-12-07T03:51:08;2.90;99.90
18083;DHT22;9168;51.194;6.840;2023-12-07T03:53:36;2.90;99.90
18083;DHT22;9168;51.194;6.840;2023-12-07T03:56:03;2.90;99.90
18083;DHT22;9168;51.194;6.840;2023-12-07T03:58:30;2.90;99.90
18083;DHT22;9168;51.194;6.840;2023-12-07T04:00:57;2.90;99.90
18083;DHT22;9168;51.194;6.840;2023-12-07T04:03:24;2.90;99.90
18083;DHT22;9168;51.194;6.840;2023-12-07T04:05:50;2.90;99.90
18083;DHT22;9168;51.194;6.840;2023-12-07T04:08:17;2.90;99.90
18083;DHT22;9168;51.194;6.840;2023-12-07T04:10:45;3.00;99.90
18083;DHT22;9168;51.194;6.840;2023-12-07T04:13:12;3.00;99.90
18083;DHT22;9168;51.194;6.840;2023-12-07T04:15:39;3.00;99.90
18083;DHT22;9168;51.194;6.840;2023-12-07T04:18:06;3.00;99.90
18083;DHT22;9168;51.194;6.840;2023-12-07T04:20:33;3.00;99.90
18083;DHT22;9168;51.194;6.840;2023-12-07T04:23:00;3.00;99.90
18083;DHT22;9168;51.194;6.840;2023-12-07T04:25:26;3.00;99.90
18083;DHT22;9168;51.194;6.840;2023-12-07T04:27:55;3.10;99.90
18083;DHT22;9168;51.194;6.840;2023-12-07T04:30:21;3.10;99.90
18083;DHT22;9168;51.194;6.840;2023-12-07T04:32:48;3.10;99.90
18083;DHT22;9168;51.194;6.840;2023-12-07T04:35:15;3.10;99.90
18083;DHT22;9168;51.194;6.840;2023-12-07T04:37:42;3.20;99.90
18083;DHT22;9168;51.194;6.840;2023-12-07T04:40:11;3.20;99.90
18083;DHT22;9168;51.194;6.840;2023-12-07T04:42:38;3.20;99.90
18083;DHT22;9168;51.194;6.840;2023-12-07T04:45:07;3.20;99.90
18083;DHT22;9168;51.194;6.840;2023-12-07T04:47:34;3.30;99.90
18083;DHT22;9168;51.194;6.840;2023-12-07T04:50:01;3.30;99.90
18083;DHT22;9168;51.194;6.840;2023-12-07T04:52:28;3.40;99.90
18083;DHT22;9168;51.194;6.840;2023-12-07T04:54:55;3.40;99.90
18083;DHT22;9168;51.194;6.840;2023-12-07T04:57:21;3.40;99.90
18083;DHT22;9168;51.194;6.840;2023-12-07T04:59:48;3.50;99.90
18083;DHT22;9168;51.194;6.840;2023-12-07T05:02:17;3.50;99.90
18083;DHT22;9168;51.194;6.840;2023-12-07T05:04:44;3.60;99.90
18083;DHT22;9168;51.194;6.840;2023-12-07T05:07:11;3.50;99.90
18083;DHT22;9168;51.194;6.840;2023-12-07T05:09:38;3.60;99.90
18083;DHT22;9168;51.194;6.840;2023-12-07T05:12:06;3.60;99.90
18083;DHT22;9168;51.194;6.840;2023-12-07T05:14:33;3.60;99.90
18083;DHT22;9168;51.194;6.840;2023-12-07T05:17:00;3.70;99.90
18083;DHT22;9168;51.194;6.840;2023-12-07T05:19:29;3.70;99.90
18083;DHT22;9168;51.194;6.840;2023-12-07T05:21:56;3.70;99.90
18083;DHT22;9168;51.194;6.840;2023-12-07T05:24:23;3.60;99.90
18083;DHT22;9168;51.194;6.840;2023-12-07T05:26:50;3.70;99.90
18083;DHT22;9168;51.194;6.840;2023-12-07T05:29:17;3.60;99.90
18083;DHT22;9168;51.194;6.840;2023-12-07T05:31:44;3.70;99.90
18083;DHT22;9168;51.194;6.840;2023-12-07T05:34:11;3.70;99.90
18083;DHT22;9168;51.194;6.840;2023-12-07T05:36:39;3.70;99.90
18083;DHT22;9168;51.194;6.840;2023-12-07T05:39:06;3.70;99.90
18083;DHT22;9168;51.194;6.840;2023-12-07T05:41:33;3.70;99.90
18083;DHT22;9168;51.194;6.840;2023-12-07T05:44:00;3.70;99.90
18083;DHT22;9168;51.194;6.840;2023-12-07T05:46:27;3.80;99.90
18083;DHT22;9168;51.194;6.840;2023-12-07T05:48:54;3.80;99.90
18083;DHT22;9168;51.194;6.840;2023-12-07T05:51:22;3.80;99.90
18083;DHT22;9168;51.194;6.840;2023-12-07T05:53:50;3.80;99.90
18083;DHT22;9168;51.194;6.840;2023-12-07T05:56:19;3.80;99.90
18083;DHT22;9168;51.194;6.840;2023-12-07T05:58:46;3.80;99.90
18083;DHT22;9168;51.194;6.840;2023-12-07T06:01:17;3.80;99.90
18083;DHT22;9168;51.194;6.840;2023-12-07T06:03:44;3.80;99.90
18083;DHT22;9168;51.194;6.840;2023-12-07T06:06:11;3.80;99.90
18083;DHT22;9168;51.194;6.840;2023-12-07T06:08:38;3.80;99.90
18083;DHT22;9168;51.194;6.840;2023-12-07T06:11:06;3.70;99.90
18083;DHT22;9168;51.194;6.840;2023-12-07T06:13:33;3.70;99.90
18083;DHT22;9168;51.194;6.840;2023-12-07T06:16:00;3.70;99.90
18083;DHT22;9168;51.194;6.840;2023-12-07T06:18:28;3.70;99.90
18083;DHT22;9168;51.194;6.840;2023-12-07T06:20:55;3.70;99.90
18083;DHT22;9168;51.194;6.840;2023-12-07T06:23:22;3.70;99.90
18083;DHT22;9168;51.194;6.840;2023-12-07T06:25:49;3.70;99.90
18083;DHT22;9168;51.194;6.840;2023-12-07T06:28:17;3.60;99.90
18083;DHT22;9168;51.194;6.840;2023-12-07T06:30:44;3.60;99.90
18083;DHT22;9168;51.194;6.840;2023-12-07T06:33:11;3.60;99.90
18083;DHT22;9168;51.194;6.840;2023-12-07T06:35:38;3.60;99.90
18083;DHT22;9168;51.194;6.840;2023-12-07T06:38:05;3.70;99.90
18083;DHT22;9168;51.194;6.840;2023-12-07T06:40:32;3.60;99.90
18083;DHT22;9168;51.194;6.840;2023-12-07T06:42:59;3.60;99.90
18083;DHT22;9168;51.194;6.840;2023-12-07T06:45:27;3.60;99.90
18083;DHT22;9168;51.194;6.840;2023-12-07T06:47:54;3.60;99.90
18083;DHT22;9168;51.194;6.840;2023-12-07T06:50:21;3.60;99.90
18083;DHT22;9168;51.194;6.840;2023-12-07T06:52:48;3.60;99.90
18083;DHT22;9168;51.194;6.840;2023-12-07T06:55:15;3.60;99.90
18083;DHT22;9168;51.194;6.840;2023-12-07T06:57:42;3.60;99.90
18083;DHT22;9168;51.194;6.840;2023-12-07T07:00:09;3.50;99.90
18083;DHT22;9168;51.194;6.840;2023-12-07T07:02:39;3.50;99.90
18083;DHT22;9168;51.194;6.840;2023-12-07T07:05:06;3.50;99.90
18083;DHT22;9168;51.194;6.840;2023-12-07T07:07:34;3.40;99.90
18083;DHT22;9168;51.194;6.840;2023-12-07T07:10:01;3.30;99.90
18083;DHT22;9168;51.194;6.840;2023-12-07T07:12:28;3.30;99.90
18083;DHT22;9168;51.194;6.840;2023-12-07T07:14:56;3.20;99.90
18083;DHT22;9168;51.194;6.840;2023-12-07T07:17:23;3.10;99.90
18083;DHT22;9168;51.194;6.840;2023-12-07T07:19:51;3.10;99.90
18083;DHT22;9168;51.194;6.840;2023-12-07T07:22:18;3.10;99.90
18083;DHT22;9168;51.194;6.840;2023-12-07T07:24:44;3.10;99.90
18083;DHT22;9168;51.194;6.840;2023-12-07T07:27:11;3.00;99.90
18083;DHT22;9168;51.194;6.840;2023-12-07T07:29:38;3.00;99.90
18083;DHT22;9168;51.194;6.840;2023-12-07T07:32:06;2.90;99.90
18083;DHT22;9168;51.194;6.840;2023-12-07T07:34:33;2.90;99.90
18083;DHT22;9168;51.194;6.840;2023-12-07T07:37:01;2.90;99.90
18083;DHT22;9168;51.194;6.840;2023-12-07T07:39:28;2.90;99.90
18083;DHT22;9168;51.194;6.840;2023-12-07T07:41:55;2.90;99.90
18083;DHT22;9168;51.194;6.840;2023-12-07T07:44:22;2.90;99.90
18083;DHT22;9168;51.194;6.840;2023-12-07T07:46:49;2.90;99.90
18083;DHT22;9168;51.194;6.840;2023-12-07T07:49:16;2.90;99.90
18083;DHT22;9168;51.194;6.840;2023-12-07T07:51:42;2.90;99.90
18083;DHT22;9168;51.194;6.840;2023-12-07T07:54:11;2.90;99.90
18083;DHT22;9168;51.194;6.840;2023-12-07T07:56:37;2.90;99.90
18083;DHT22;9168;51.194;6.840;2023-12-07T07:59:04;2.90;99.90
18083;DHT22;9168;51.194;6.840;2023-12-07T08:01:31;2.90;99.90
18083;DHT22;9168;51.194;6.840;2023-12-07T08:03:58;2.90;99.90
18083;DHT22;9168;51.194;6.840;2023-12-07T08:06:25;2.90;99.90
18083;DHT22;9168;51.194;6.840;2023-12-07T08:08:51;3.00;99.90
18083;DHT22;9168;51.194;6.840;2023-12-07T08:11:20;3.00;99.90
18083;DHT22;9168;51.194;6.840;2023-12-07T08:13:47;3.00;99.90
18083;DHT22;9168;51.194;6.840;2023-12-07T08:16:14;3.00;99.90
18083;DHT22;9168;51.194;6.840;2023-12-07T08:18:40;3.00;99.90
18083;DHT22;9168;51.194;6.840;2023-12-07T08:21:07;3.00;99.90
18083;DHT22;9168;51.194;6.840;2023-12-07T08:23:34;2.90;99.90
18083;DHT22;9168;51.194;6.840;2023-12-07T08:26:01;3.00;99.90
18083;DHT22;9168;51.194;6.840;2023-12-07T08:28:30;3.00;99.90
18083;DHT22;9168;51.194;6.840;2023-12-07T08:30:56;3.00;99.90
18083;DHT22;9168;51.194;6.840;2023-12-07T08:33:24;3.00;99.90
18083;DHT22;9168;51.194;6.840;2023-12-07T08:35:51;3.00;99.90
18083;DHT22;9168;51.194;6.840;2023-12-07T08:38:20;3.10;99.90
18083;DHT22;9168;51.194;6.840;2023-12-07T08:40:48;3.10;99.90
18083;DHT22;9168;51.194;6.840;2023-12-07T08:43:15;3.10;99.90
18083;DHT22;9168;51.194;6.840;2023-12-07T08:45:43;3.20;99.90
18083;DHT22;9168;51.194;6.840;2023-12-07T08:48:10;3.20;99.90
18083;DHT22;9168;51.194;6.840;2023-12-07T08:50:37;3.20;99.90
18083;DHT22;9168;51.194;6.840;2023-12-07T08:53:04;3.20;99.90
18083;DHT22;9168;51.194;6.840;2023-12-07T08:55:31;3.10;99.90
18083;DHT22;9168;51.194;6.840;2023-12-07T08:57:57;3.20;99.90
18083;DHT22;9168;51.194;6.840;2023-12-07T09:00:26;3.10;99.90
18083;DHT22;9168;51.194;6.840;2023-12-07T09:02:54;3.20;99.90
18083;DHT22;9168;51.194;6.840;2023-12-07T09:05:21;3.20;99.90
18083;DHT22;9168;51.194;6.840;2023-12-07T09:07:48;3.20;99.90
18083;DHT22;9168;51.194;6.840;2023-12-07T09:10:15;3.30;99.90
18083;DHT22;9168;51.194;6.840;2023-12-07T09:12:42;3.30;99.90
18083;DHT22;9168;51.194;6.840;2023-12-07T09:15:09;3.30;99.90
18083;DHT22;9168;51.194;6.840;2023-12-07T09:17:37;3.40;99.90
18083;DHT22;9168;51.194;6.840;2023-12-07T09:20:06;3.40;99.90
18083;DHT22;9168;51.194;6.840;2023-12-07T09:22:37;3.40;99.90
18083;DHT22;9168;51.194;6.840;2023-12-07T09:25:05;3.40;99.90
18083;DHT22;9168;51.194;6.840;2023-12-07T09:27:33;3.50;99.90
18083;DHT22;9168;51.194;6.840;2023-12-07T09:30:04;3.50;99.90
18083;DHT22;9168;51.194;6.840;2023-12-07T09:32:31;3.50;99.90
18083;DHT22;9168;51.194;6.840;2023-12-07T09:34:57;3.50;99.90
18083;DHT22;9168;51.194;6.840;2023-12-07T09:37:26;3.50;99.90
18083;DHT22;9168;51.194;6.840;2023-12-07T09:39:53;3.50;99.90
18083;DHT22;9168;51.194;6.840;2023-12-07T09:42:19;3.50;99.90
18083;DHT22;9168;51.194;6.840;2023-12-07T09:44:46;3.50;99.90
18083;DHT22;9168;51.194;6.840;2023-12-07T09:47:14;3.60;99.90
18083;DHT22;9168;51.194;6.840;2023-12-07T09:49:41;3.60;99.90
18083;DHT22;9168;51.194;6.840;2023-12-07T09:52:08;3.60;99.90
18083;DHT22;9168;51.194;6.840;2023-12-07T09:54:42;3.60;99.90
18083;DHT22;9168;51.194;6.840;2023-12-07T09:57:09;3.60;99.90
18083;DHT22;9168;51.194;6.840;2023-12-07T09:59:36;3.70;99.90
18083;DHT22;9168;51.194;6.840;2023-12-07T10:02:04;3.70;99.90
18083;DHT22;9168;51.194;6.840;2023-12-07T10:04:31;3.70;99.90
18083;DHT22;9168;51.194;6.840;2023-12-07T10:06:58;3.70;99.90
18083;DHT22;9168;51.194;6.840;2023-12-07T10:09:26;3.70;99.90
18083;DHT22;9168;51.194;6.840;2023-12-07T10:12:02;3.70;99.90
18083;DHT22;9168;51.194;6.840;2023-12-07T10:14:29;3.80;99.90
18083;DHT22;9168;51.194;6.840;2023-12-07T10:16:56;3.80;99.90
18083;DHT22;9168;51.194;6.840;2023-12-07T10:19:24;3.80;99.90
18083;DHT22;9168;51.194;6.840;2023-12-07T10:21:51;3.80;99.90
18083;DHT22;9168;51.194;6.840;2023-12-07T10:24:19;3.90;99.90
18083;DHT22;9168;51.194;6.840;2023-12-07T10:26:46;3.90;99.90
18083;DHT22;9168;51.194;6.840;2023-12-07T10:29:17;4.00;99.90
18083;DHT22;9168;51.194;6.840;2023-12-07T10:31:44;3.90;99.90
18083;DHT22;9168;51.194;6.840;2023-12-07T10:34:12;4.00;99.90
18083;DHT22;9168;51.194;6.840;2023-12-07T10:36:39;4.10;99.90
18083;DHT22;9168;51.194;6.840;2023-12-07T10:39:06;4.10;99.90
18083;DHT22;9168;51.194;6.840;2023-12-07T10:41:34;4.10;99.90
18083;DHT22;9168;51.194;6.840;2023-12-07T10:44:06;4.20;99.90
18083;DHT22;9168;51.194;6.840;2023-12-07T10:46:36;4.30;99.90
18083;DHT22;9168;51.194;6.840;2023-12-07T10:49:04;4.40;99.90
18083;DHT22;9168;51.194;6.840;2023-12-07T10:51:38;4.30;99.90
18083;DHT22;9168;51.194;6.840;2023-12-07T10:54:08;4.20;99.90
18083;DHT22;9168;51.194;6.840;2023-12-07T10:56:39;4.20;99.90
18083;DHT22;9168;51.194;6.840;2023-12-07T10:59:08;4.20;99.90
18083;DHT22;9168;51.194;6.840;2023-12-07T11:01:38;4.30;99.90
18083;DHT22;9168;51.194;6.840;2023-12-07T11:04:06;4.50;99.90
18083;DHT22;9168;51.194;6.840;2023-12-07T11:06:33;4.50;99.90
18083;DHT22;9168;51.194;6.840;2023-12-07T11:09:02;4.50;99.90
18083;DHT22;9168;51.194;6.840;2023-12-07T11:11:36;4.50;99.90
18083;DHT22;9168;51.194;6.840;2023-12-07T11:14:07;4.60;99.90
18083;DHT22;9168;51.194;6.840;2023-12-07T11:16:40;4.60;99.90
18083;DHT22;9168;51.194;6.840;2023-12-07T11:22:11;4.70;99.90
18083;DHT22;9168;51.194;6.840;2023-12-07T11:24:44;4.80;99.90
18083;DHT22;9168;51.194;6.840;2023-12-07T11:27:18;4.90;99.90
18083;DHT22;9168;51.194;6.840;2023-12-07T11:29:46;4.90;99.90
18083;DHT22;9168;51.194;6.840;2023-12-07T11:32:15;4.90;99.90
18083;DHT22;9168;51.194;6.840;2023-12-07T11:34:43;5.00;99.90
18083;DHT22;9168;51.194;6.840;2023-12-07T11:37:15;5.40;99.90
18083;DHT22;9168;51.194;6.840;2023-12-07T11:39:43;6.00;99.90
18083;DHT22;9168;51.194;6.840;2023-12-07T11:42:12;6.90;99.90
18083;DHT22;9168;51.194;6.840;2023-12-07T11:44:39;7.40;99.90
18083;DHT22;9168;51.194;6.840;2023-12-07T11:47:07;7.40;99.90
18083;DHT22;9168;51.194;6.840;2023-12-07T11:49:36;7.60;99.90
18083;DHT22;9168;51.194;6.840;2023-12-07T11:52:13;7.90;99.90
18083;DHT22;9168;51.194;6.840;2023-12-07T11:54:43;8.50;99.90
18083;DHT22;9168;51.194;6.840;2023-12-07T11:57:10;9.30;99.90
18083;DHT22;9168;51.194;6.840;2023-12-07T11:59:37;9.80;99.90
18083;DHT22;9168;51.194;6.840;2023-12-07T12:02:04;10.20;99.90
18083;DHT22;9168;51.194;6.840;2023-12-07T12:04:31;9.90;99.90
18083;DHT22;9168;51.194;6.840;2023-12-07T12:06:59;10.00;99.90
18083;DHT22;9168;51.194;6.840;2023-12-07T12:09:26;9.70;99.90
18083;DHT22;9168;51.194;6.840;2023-12-07T12:11:53;9.40;99.90
18083;DHT22;9168;51.194;6.840;2023-12-07T12:14:20;9.30;99.90
18083;DHT22;9168;51.194;6.840;2023-12-07T12:16:47;9.10;99.90
18083;DHT22;9168;51.194;6.840;2023-12-07T12:19:14;8.80;99.90
18083;DHT22;9168;51.194;6.840;2023-12-07T12:21:42;8.70;99.90
18083;DHT22;9168;51.194;6.840;2023-12-07T12:24:11;8.30;99.90
18083;DHT22;9168;51.194;6.840;2023-12-07T12:26:44;7.90;99.90
18083;DHT22;9168;51.194;6.840;2023-12-07T12:29:13;7.50;99.90
18083;DHT22;9168;51.194;6.840;2023-12-07T12:31:41;7.00;99.90
18083;DHT22;9168;51.194;6.840;2023-12-07T12:34:07;7.00;99.90
18083;DHT22;9168;51.194;6.840;2023-12-07T12:36:35;7.00;99.90
18083;DHT22;9168;51.194;6.840;2023-12-07T12:39:02;6.80;99.90
18083;DHT22;9168;51.194;6.840;2023-12-07T12:41:32;6.80;99.90
18083;DHT22;9168;51.194;6.840;2023-12-07T12:43:58;6.90;99.90
18083;DHT22;9168;51.194;6.840;2023-12-07T12:46:25;7.10;99.90
18083;DHT22;9168;51.194;6.840;2023-12-07T12:48:53;7.10;99.90
18083;DHT22;9168;51.194;6.840;2023-12-07T12:51:23;6.90;99.90
18083;DHT22;9168;51.194;6.840;2023-12-07T12:53:51;6.70;99.90
18083;DHT22;9168;51.194;6.840;2023-12-07T12:56:19;6.80;99.90
18083;DHT22;9168;51.194;6.840;2023-12-07T12:58:47;6.80;99.90
18083;DHT22;9168;51.194;6.840;2023-12-07T13:01:15;6.80;99.90
18083;DHT22;9168;51.194;6.840;2023-12-07T13:03:43;6.80;99.90
18083;DHT22;9168;51.194;6.840;2023-12-07T13:06:11;6.80;99.90
18083;DHT22;9168;51.194;6.840;2023-12-07T13:08:38;6.80;99.90
18083;DHT22;9168;51.194;6.840;2023-12-07T13:11:06;6.80;99.90
18083;DHT22;9168;51.194;6.840;2023-12-07T13:13:33;6.80;99.90
18083;DHT22;9168;51.194;6.840;2023-12-07T13:16:01;6.70;99.90
18083;DHT22;9168;51.194;6.840;2023-12-07T13:18:28;6.60;99.90
18083;DHT22;9168;51.194;6.840;2023-12-07T13:20:55;6.60;99.90
18083;DHT22;9168;51.194;6.840;2023-12-07T13:23:22;6.50;99.90
18083;DHT22;9168;51.194;6.840;2023-12-07T13:25:49;6.50;99.90
18083;DHT22;9168;51.194;6.840;2023-12-07T13:28:16;6.60;99.90
18083;DHT22;9168;51.194;6.840;2023-12-07T13:30:43;6.80;99.90
18083;DHT22;9168;51.194;6.840;2023-12-07T13:33:11;6.90;99.90
18083;DHT22;9168;51.194;6.840;2023-12-07T13:35:38;6.90;99.90
18083;DHT22;9168;51.194;6.840;2023-12-07T13:38:05;7.00;99.90
18083;DHT22;9168;51.194;6.840;2023-12-07T13:40:32;7.00;99.90
18083;DHT22;9168;51.194;6.840;2023-12-07T13:43:02;6.80;99.90
18083;DHT22;9168;51.194;6.840;2023-12-07T13:45:29;6.90;99.90
18083;DHT22;9168;51.194;6.840;2023-12-07T13:47:56;6.80;99.90
18083;DHT22;9168;51.194;6.840;2023-12-07T13:50:25;6.80;99.90
18083;DHT22;9168;51.194;6.840;2023-12-07T13:52:53;6.70;99.90
18083;DHT22;9168;51.194;6.840;2023-12-07T13:55:19;6.50;99.90
18083;DHT22;9168;51.194;6.840;2023-12-07T13:57:46;6.40;99.90
18083;DHT22;9168;51.194;6.840;2023-12-07T14:02:41;6.30;99.90
18083;DHT22;9168;51.194;6.840;2023-12-07T14:05:08;6.20;99.90
18083;DHT22;9168;51.194;6.840;2023-12-07T14:07:37;6.20;99.90
18083;DHT22;9168;51.194;6.840;2023-12-07T14:10:04;6.10;99.90
18083;DHT22;9168;51.194;6.840;2023-12-07T14:12:31;6.10;99.90
18083;DHT22;9168;51.194;6.840;2023-12-07T14:14:58;6.00;99.90
18083;DHT22;9168;51.194;6.840;2023-12-07T14:17:25;5.90;99.90
18083;DHT22;9168;51.194;6.840;2023-12-07T14:19:52;5.80;99.90
18083;DHT22;9168;51.194;6.840;2023-12-07T14:22:20;5.70;99.90
18083;DHT22;9168;51.194;6.840;2023-12-07T14:24:49;5.70;99.90
18083;DHT22;9168;51.194;6.840;2023-12-07T14:27:15;5.60;99.90
18083;DHT22;9168;51.194;6.840;2023-12-07T14:29:42;5.60;99.90
18083;DHT22;9168;51.194;6.840;2023-12-07T14:32:09;5.60;99.90
18083;DHT22;9168;51.194;6.840;2023-12-07T14:34:37;5.50;99.90
18083;DHT22;9168;51.194;6.840;2023-12-07T14:37:04;5.40;99.90
18083;DHT22;9168;51.194;6.840;2023-12-07T14:39:31;5.40;99.90
18083;DHT22;9168;51.194;6.840;2023-12-07T14:42:00;5.50;99.90
18083;DHT22;9168;51.194;6.840;2023-12-07T14:44:30;5.50;99.90
18083;DHT22;9168;51.194;6.840;2023-12-07T14:46:57;5.50;99.90
18083;DHT22;9168;51.194;6.840;2023-12-07T14:49:25;5.50;99.90
18083;DHT22;9168;51.194;6.840;2023-12-07T14:51:54;5.50;99.90
18083;DHT22;9168;51.194;6.840;2023-12-07T14:54:22;5.50;99.90
18083;DHT22;9168;51.194;6.840;2023-12-07T14:56:49;5.50;99.90
18083;DHT22;9168;51.194;6.840;2023-12-07T14:59:23;5.40;99.90
18083;DHT22;9168;51.194;6.840;2023-12-07T15:01:50;5.40;99.90
18083;DHT22;9168;51.194;6.840;2023-12-07T15:04:17;5.40;99.90
18083;DHT22;9168;51.194;6.840;2023-12-07T15:06:44;5.30;99.90
18083;DHT22;9168;51.194;6.840;2023-12-07T15:09:11;5.30;99.90
18083;DHT22;9168;51.194;6.840;2023-12-07T15:11:39;5.30;99.90
18083;DHT22;9168;51.194;6.840;2023-12-07T15:14:06;5.20;99.90
18083;DHT22;9168;51.194;6.840;2023-12-07T15:16:35;5.20;99.90
18083;DHT22;9168;51.194;6.840;2023-12-07T15:19:02;5.20;99.90
18083;DHT22;9168;51.194;6.840;2023-12-07T15:21:28;5.10;99.90
18083;DHT22;9168;51.194;6.840;2023-12-07T15:23:56;5.00;99.90
18083;DHT22;9168;51.194;6.840;2023-12-07T15:26:22;5.00;99.90
18083;DHT22;9168;51.194;6.840;2023-12-07T15:29:11;5.00;99.90
18083;DHT22;9168;51.194;6.840;2023-12-07T15:31:40;5.00;99.90
18083;DHT22;9168;51.194;6.840;2023-12-07T15:34:07;4.90;99.90
18083;DHT22;9168;51.194;6.840;2023-12-07T15:36:35;4.90;99.90
18083;DHT22;9168;51.194;6.840;2023-12-07T15:39:04;4.90;99.90
18083;DHT22;9168;51.194;6.840;2023-12-07T15:41:32;4.90;99.90
18083;DHT22;9168;51.194;6.840;2023-12-07T15:43:59;4.80;99.90
18083;DHT22;9168;51.194;6.840;2023-12-07T15:46:26;4.80;99.90
18083;DHT22;9168;51.194;6.840;2023-12-07T15:48:54;4.80;99.90
18083;DHT22;9168;51.194;6.840;2023-12-07T15:51:21;4.80;99.90
18083;DHT22;9168;51.194;6.840;2023-12-07T15:53:48;4.70;99.90
18083;DHT22;9168;51.194;6.840;2023-12-07T15:56:15;4.70;99.90
18083;DHT22;9168;51.194;6.840;2023-12-07T15:58:42;4.70;99.90
18083;DHT22;9168;51.194;6.840;2023-12-07T16:01:09;4.70;99.90
18083;DHT22;9168;51.194;6.840;2023-12-07T16:03:37;4.60;99.90
18083;DHT22;9168;51.194;6.840;2023-12-07T16:06:06;4.60;99.90
18083;DHT22;9168;51.194;6.840;2023-12-07T16:08:33;4.60;99.90
18083;DHT22;9168;51.194;6.840;2023-12-07T16:11:00;4.60;99.90